Time;durP1;ratioP1;P1;durP2;ratioP2;P2;SDS_P1;SDS_P2;PMS_P1;PMS_P2;Temp;Humidity;BMP_temperature;BMP_pressure;BME280_temperature;BME280_humidity;BME280_pressure;Samples;Min_cycle;Max_cycle;Signal;HPM_P1;HPM_P2
2024/02/13 00:00:26;;;;;;;3.63;2.70;;;8.40;99.90;;;;;;4111530;28;20027;-59
2024/02/13 00:02:28;;;;;;;6.03;3.50;;;8.40;99.90;;;;;;4113119;28;20039;-62
2024/02/13 00:04:32;;;;;;;3.43;2.67;;;8.40;99.90;;;;;;4112406;28;20027;-62
2024/02/13 00:06:33;;;;;;;3.87;2.93;;;8.30;99.90;;;;;;4116599;28;20027;-61
2024/02/13 00:08:36;;;;;;;3.40;2.70;;;8.30;99.90;;;;;;4113470;28;20093;-61
2024/02/13 00:10:37;;;;;;;3.60;2.67;;;8.40;99.90;;;;;;4109600;28;20393;-61
2024/02/13 00:12:39;;;;;;;4.30;2.77;;;8.30;99.90;;;;;;4101181;28;20480;-62
2024/02/13 00:14:40;;;;;;;4.40;3.37;;;8.30;99.90;;;;;;4115686;28;20050;-62
2024/02/13 00:16:44;;;;;;;3.37;3.00;;;8.30;99.90;;;;;;4113324;28;20058;-61
2024/02/13 00:18:46;;;;;;;6.17;3.47;;;8.30;99.90;;;;;;4115946;28;20113;-61
2024/02/13 00:20:47;;;;;;;5.07;2.80;;;8.30;99.90;;;;;;4115162;28;20031;-60
2024/02/13 00:22:49;;;;;;;4.17;3.00;;;8.30;99.90;;;;;;4113813;28;20353;-61
2024/02/13 00:24:50;;;;;;;5.50;3.27;;;8.30;99.90;;;;;;4115580;28;20093;-58
2024/02/13 00:26:52;;;;;;;4.87;3.50;;;8.30;99.90;;;;;;4115045;28;20039;-62
2024/02/13 00:28:53;;;;;;;4.87;3.20;;;8.30;99.90;;;;;;4115714;28;20047;-59
2024/02/13 00:30:56;;;;;;;3.67;3.00;;;8.20;99.90;;;;;;4102022;28;20044;-61
2024/02/13 00:32:57;;;;;;;4.70;3.20;;;8.20;99.90;;;;;;4100089;29;20475;-62
2024/02/13 00:34:59;;;;;;;6.93;4.50;;;8.20;99.90;;;;;;4107811;28;20122;-62
2024/02/13 00:37:00;;;;;;;4.00;3.30;;;8.20;99.90;;;;;;4114102;28;20063;-61
2024/02/13 00:39:03;;;;;;;4.57;3.10;;;8.20;99.90;;;;;;4114498;28;20418;-59
2024/02/13 00:41:04;;;;;;;5.13;3.70;;;8.10;99.90;;;;;;4106598;28;20825;-59
2024/02/13 00:43:05;;;;;;;6.43;3.83;;;8.10;99.90;;;;;;4106610;28;20089;-60
2024/02/13 00:45:11;;;;;;;3.43;2.90;;;8.10;99.90;;;;;;4115926;28;20089;-61
2024/02/13 00:47:12;;;;;;;4.40;3.83;;;8.10;99.90;;;;;;4112749;28;20094;-61
2024/02/13 00:49:13;;;;;;;5.17;4.07;;;8.10;99.90;;;;;;4116053;28;20357;-57
2024/02/13 00:51:15;;;;;;;5.97;3.57;;;8.10;99.90;;;;;;4114561;28;20434;-61
2024/02/13 00:53:16;;;;;;;4.70;4.07;;;8.10;99.90;;;;;;4115129;28;20097;-62
2024/02/13 00:55:18;;;;;;;4.90;3.93;;;8.10;99.90;;;;;;4114777;28;20065;-61
2024/02/13 00:57:19;;;;;;;5.27;3.47;;;8.00;99.90;;;;;;4114448;28;20105;-63
2024/02/13 00:59:20;;;;;;;3.60;3.10;;;8.00;99.90;;;;;;4115303;28;20089;-62
2024/02/13 01:01:21;;;;;;;4.60;3.30;;;8.00;99.90;;;;;;4114591;28;20110;-62
2024/02/13 01:03:23;;;;;;;4.53;3.50;;;8.00;99.90;;;;;;4109452;28;20043;-61
2024/02/13 01:05:24;;;;;;;5.10;4.10;;;8.00;99.90;;;;;;4098482;28;20038;-58
2024/02/13 01:07:25;;;;;;;5.27;3.90;;;8.00;99.90;;;;;;4099383;28;20051;-62
2024/02/13 01:09:26;;;;;;;3.67;3.17;;;8.00;99.90;;;;;;4098459;28;20090;-62
2024/02/13 01:11:28;;;;;;;4.27;3.57;;;8.00;99.90;;;;;;4101075;28;20435;-61
2024/02/13 01:13:31;;;;;;;3.93;3.07;;;8.00;99.90;;;;;;4098351;28;20043;-62
2024/02/13 01:15:33;;;;;;;3.70;2.83;;;8.00;99.90;;;;;;4099146;28;20444;-61
2024/02/13 01:17:34;;;;;;;4.40;3.60;;;8.00;99.90;;;;;;4108941;28;20050;-60
2024/02/13 01:19:35;;;;;;;4.53;3.50;;;7.90;99.90;;;;;;4115333;28;20097;-60
2024/02/13 01:21:37;;;;;;;6.13;4.07;;;7.90;99.90;;;;;;4114060;28;20078;-63
2024/02/13 01:23:38;;;;;;;5.90;4.17;;;8.00;99.90;;;;;;4114031;28;20491;-61
2024/02/13 01:25:39;;;;;;;5.90;3.90;;;8.00;99.90;;;;;;4098728;28;20043;-59
2024/02/13 01:27:41;;;;;;;6.80;3.70;;;8.00;99.90;;;;;;4098463;28;20036;-62
2024/02/13 01:29:42;;;;;;;4.67;3.90;;;7.90;99.90;;;;;;4102290;28;20093;-62
2024/02/13 01:31:43;;;;;;;5.90;4.10;;;7.90;99.90;;;;;;4106570;28;20110;-62
2024/02/13 01:33:45;;;;;;;5.27;3.90;;;7.90;99.90;;;;;;4099358;28;20562;-61
2024/02/13 01:35:46;;;;;;;4.30;3.60;;;7.90;99.90;;;;;;4097933;29;20039;-61
2024/02/13 01:37:48;;;;;;;5.03;4.20;;;7.90;99.90;;;;;;4099175;28;20039;-63
2024/02/13 01:39:49;;;;;;;5.17;3.93;;;7.90;99.90;;;;;;4097752;28;20047;-62
2024/02/13 01:41:51;;;;;;;4.37;3.33;;;7.90;99.90;;;;;;4112571;28;20051;-59
2024/02/13 01:43:52;;;;;;;4.00;3.43;;;7.90;99.90;;;;;;4113542;28;20114;-61
2024/02/13 01:45:56;;;;;;;4.57;3.90;;;7.90;99.90;;;;;;4102883;28;20102;-59
2024/02/13 01:47:58;;;;;;;5.57;4.03;;;7.90;99.90;;;;;;4097764;29;20027;-62
2024/02/13 01:50:00;;;;;;;4.17;3.27;;;7.90;99.90;;;;;;4106692;28;20050;-60
2024/02/13 01:52:03;;;;;;;4.10;3.50;;;7.90;99.90;;;;;;4109414;28;20487;-61
2024/02/13 01:54:10;;;;;;;4.57;3.77;;;7.80;99.90;;;;;;4098702;29;20480;-60
2024/02/13 01:56:12;;;;;;;5.57;3.90;;;7.80;99.90;;;;;;4097866;28;20106;-62
2024/02/13 01:58:15;;;;;;;5.20;3.93;;;7.80;99.90;;;;;;4099602;28;20035;-61
2024/02/13 02:00:16;;;;;;;5.93;3.83;;;7.70;99.90;;;;;;4099206;28;20047;-62
2024/02/13 02:02:18;;;;;;;5.30;3.87;;;7.70;99.90;;;;;;4112708;28;20447;-62
2024/02/13 02:04:20;;;;;;;6.73;4.80;;;7.70;99.90;;;;;;4114480;28;20821;-62
2024/02/13 02:06:21;;;;;;;6.47;4.60;;;7.60;99.90;;;;;;4113766;28;20078;-61
2024/02/13 02:08:23;;;;;;;7.47;4.33;;;7.60;99.90;;;;;;4114404;28;20542;-60
2024/02/13 02:10:24;;;;;;;6.20;3.97;;;7.60;99.90;;;;;;4111534;28;20066;-62
2024/02/13 02:12:25;;;;;;;5.50;4.43;;;7.60;99.90;;;;;;4114435;28;20038;-61
2024/02/13 02:14:27;;;;;;;5.70;4.00;;;7.60;99.90;;;;;;4112600;28;20023;-61
2024/02/13 02:16:28;;;;;;;5.27;3.33;;;7.60;99.90;;;;;;4109639;28;20035;-61
2024/02/13 02:18:30;;;;;;;4.70;3.77;;;7.60;99.90;;;;;;4098729;28;20043;-60
2024/02/13 02:20:32;;;;;;;5.57;4.00;;;7.60;99.90;;;;;;4098947;29;20090;-61
2024/02/13 02:22:34;;;;;;;5.63;3.90;;;7.70;99.90;;;;;;4097525;28;20047;-62
2024/02/13 02:24:35;;;;;;;7.07;4.70;;;7.70;99.90;;;;;;4098444;29;20101;-63
2024/02/13 02:26:37;;;;;;;7.43;4.90;;;7.60;99.90;;;;;;4097152;28;20031;-61
2024/02/13 02:28:38;;;;;;;7.17;4.20;;;7.60;99.90;;;;;;4097751;28;20106;-61
2024/02/13 02:30:41;;;;;;;8.83;5.03;;;7.60;99.90;;;;;;4098196;28;20109;-62
2024/02/13 02:32:43;;;;;;;8.87;4.73;;;7.60;99.90;;;;;;4097660;28;20036;-62
2024/02/13 02:34:44;;;;;;;5.47;4.10;;;7.60;99.90;;;;;;4097432;28;20110;-61
2024/02/13 02:36:52;;;;;;;5.33;3.80;;;7.60;99.90;;;;;;4100793;28;20038;-62
2024/02/13 02:38:53;;;;;;;5.93;4.20;;;7.60;99.90;;;;;;4113641;28;20035;-62
2024/02/13 02:40:54;;;;;;;6.83;3.80;;;7.60;99.90;;;;;;4112968;28;20464;-63
2024/02/13 02:42:56;;;;;;;5.97;4.20;;;7.60;99.90;;;;;;4105369;28;20097;-60
2024/02/13 02:44:57;;;;;;;7.17;3.80;;;7.70;99.90;;;;;;4101196;28;20062;-62
2024/02/13 02:46:59;;;;;;;4.53;3.80;;;7.60;99.90;;;;;;4113877;28;20423;-60
2024/02/13 02:49:00;;;;;;;4.87;3.90;;;7.60;99.90;;;;;;4112328;28;20039;-61
2024/02/13 02:51:01;;;;;;;6.60;4.60;;;7.60;99.90;;;;;;4098027;28;20086;-61
2024/02/13 02:53:03;;;;;;;6.40;4.00;;;7.60;99.90;;;;;;4096975;28;20043;-61
2024/02/13 02:55:05;;;;;;;5.37;3.90;;;7.60;99.90;;;;;;4097951;28;20094;-61
2024/02/13 02:57:07;;;;;;;5.83;4.03;;;7.60;99.90;;;;;;4097467;28;20125;-62
2024/02/13 02:59:08;;;;;;;6.93;4.33;;;7.60;99.90;;;;;;4097924;28;20063;-64
2024/02/13 03:01:10;;;;;;;5.83;4.30;;;7.50;99.90;;;;;;4101821;28;20551;-62
2024/02/13 03:03:11;;;;;;;5.97;4.03;;;7.60;99.90;;;;;;4113398;28;20097;-63
2024/02/13 03:05:12;;;;;;;5.13;3.77;;;7.60;99.90;;;;;;4112893;28;20538;-62
2024/02/13 03:07:13;;;;;;;4.10;3.40;;;7.50;99.90;;;;;;4112843;28;20030;-61
2024/02/13 03:09:15;;;;;;;4.13;3.17;;;7.60;99.90;;;;;;4113157;28;20109;-61
2024/02/13 03:11:16;;;;;;;3.87;3.40;;;7.50;99.90;;;;;;4112654;28;20034;-61
2024/02/13 03:13:17;;;;;;;4.73;3.73;;;7.50;99.90;;;;;;4105112;28;20063;-62
2024/02/13 03:15:18;;;;;;;4.90;4.07;;;7.50;99.90;;;;;;4101876;28;20422;-62
2024/02/13 03:17:23;;;;;;;3.97;3.30;;;7.60;99.90;;;;;;4106889;28;20055;-61
2024/02/13 03:19:26;;;;;;;4.40;3.60;;;7.60;99.90;;;;;;4107115;28;20069;-59
2024/02/13 03:21:28;;;;;;;5.27;3.13;;;7.50;99.90;;;;;;4113472;28;20038;-61
2024/02/13 03:23:29;;;;;;;3.50;3.20;;;7.50;99.90;;;;;;4101584;28;20031;-62
2024/02/13 03:25:30;;;;;;;5.37;3.73;;;7.60;99.90;;;;;;4097611;28;20043;-60
2024/02/13 03:27:32;;;;;;;4.93;3.60;;;7.60;99.90;;;;;;4097656;28;20492;-61
2024/02/13 03:29:33;;;;;;;4.67;3.83;;;7.60;99.90;;;;;;4098503;28;20043;-61
2024/02/13 03:31:34;;;;;;;5.03;3.30;;;7.60;99.90;;;;;;4096168;28;20464;-61
2024/02/13 03:33:35;;;;;;;3.83;3.30;;;7.60;99.90;;;;;;4097460;28;20035;-62
2024/02/13 03:35:37;;;;;;;6.73;4.70;;;7.60;99.90;;;;;;4096475;28;20468;-63
2024/02/13 03:37:38;;;;;;;6.10;3.70;;;7.60;99.90;;;;;;4096911;29;20496;-62
2024/02/13 03:39:42;;;;;;;5.20;3.77;;;7.60;99.90;;;;;;4097067;28;20035;-62
2024/02/13 03:41:47;;;;;;;6.33;3.13;;;7.60;99.90;;;;;;4096719;29;20031;-62
2024/02/13 03:43:49;;;;;;;3.57;3.20;;;7.60;99.90;;;;;;4097170;28;20087;-62
2024/02/13 03:45:50;;;;;;;6.03;4.00;;;7.60;99.90;;;;;;4098534;28;20039;-61
2024/02/13 03:47:51;;;;;;;4.73;3.47;;;7.50;99.90;;;;;;4097196;28;20555;-62
2024/02/13 03:49:53;;;;;;;11.17;6.80;;;7.50;99.90;;;;;;4110399;28;20097;-61
2024/02/13 03:51:54;;;;;;;5.63;3.50;;;7.50;99.90;;;;;;4098163;28;20456;-63
2024/02/13 03:53:55;;;;;;;3.63;3.00;;;7.50;99.90;;;;;;4095875;28;20082;-60
2024/02/13 03:55:56;;;;;;;5.13;3.37;;;7.50;99.90;;;;;;4097225;29;20063;-62
2024/02/13 03:57:57;;;;;;;5.30;3.63;;;7.50;99.90;;;;;;4096115;28;20055;-61
2024/02/13 03:59:59;;;;;;;4.40;3.53;;;7.50;99.90;;;;;;4098231;28;20073;-61
2024/02/13 04:02:02;;;;;;;4.77;3.63;;;7.50;99.90;;;;;;4106731;28;20034;-61
2024/02/13 04:04:04;;;;;;;5.23;3.70;;;7.50;99.90;;;;;;4113131;28;20026;-60
2024/02/13 04:06:06;;;;;;;6.27;3.57;;;7.40;99.90;;;;;;4111887;28;20020;-62
2024/02/13 04:08:08;;;;;;;5.00;3.57;;;7.40;99.90;;;;;;4112735;28;20039;-62
2024/02/13 04:10:10;;;;;;;3.87;3.40;;;7.40;99.90;;;;;;4112339;28;20070;-62
2024/02/13 04:12:11;;;;;;;4.43;3.47;;;7.50;99.90;;;;;;4112419;28;20042;-62
2024/02/13 04:14:13;;;;;;;5.47;3.77;;;7.50;99.90;;;;;;4104645;28;20092;-62
2024/02/13 04:16:15;;;;;;;5.40;3.80;;;7.50;99.90;;;;;;4101195;28;20051;-56
2024/02/13 04:18:16;;;;;;;6.57;4.17;;;7.50;99.90;;;;;;4095479;29;20047;-60
2024/02/13 04:20:18;;;;;;;5.57;3.87;;;7.50;99.90;;;;;;4097224;28;20035;-61
2024/02/13 04:22:19;;;;;;;5.63;3.87;;;7.50;99.90;;;;;;4097102;28;20558;-58
2024/02/13 04:24:20;;;;;;;5.63;3.60;;;7.50;99.90;;;;;;4095763;28;20083;-63
2024/02/13 04:26:22;;;;;;;5.30;4.27;;;7.50;99.90;;;;;;4097098;28;20094;-61
2024/02/13 04:28:24;;;;;;;7.80;4.27;;;7.50;99.90;;;;;;4096681;28;20086;-63
2024/02/13 04:30:25;;;;;;;7.17;4.53;;;7.50;99.90;;;;;;4096695;28;20085;-60
2024/02/13 04:32:26;;;;;;;7.50;4.40;;;7.50;99.90;;;;;;4096762;28;20031;-62
2024/02/13 04:34:28;;;;;;;6.60;4.53;;;7.50;99.90;;;;;;4097173;28;20036;-59
2024/02/13 04:36:30;;;;;;;5.83;3.87;;;7.50;99.90;;;;;;4095699;29;20027;-61
2024/02/13 04:38:31;;;;;;;7.40;4.50;;;7.40;99.90;;;;;;4096983;29;20082;-61
2024/02/13 04:40:33;;;;;;;6.67;4.37;;;7.40;99.90;;;;;;4097013;28;20491;-60
2024/02/13 04:42:36;;;;;;;7.53;4.50;;;7.40;99.90;;;;;;4108281;28;20055;-63
2024/02/13 04:44:38;;;;;;;6.33;3.53;;;7.40;99.90;;;;;;4107163;28;20094;-59
2024/02/13 04:46:41;;;;;;;5.83;4.30;;;7.40;99.90;;;;;;4101435;28;20086;-62
2024/02/13 04:48:42;;;;;;;3.80;2.83;;;7.40;99.90;;;;;;4112372;28;20085;-60
2024/02/13 04:50:43;;;;;;;4.50;3.10;;;7.40;99.90;;;;;;4112853;28;20090;-62
2024/02/13 04:52:44;;;;;;;5.43;2.93;;;7.40;99.90;;;;;;4115551;28;20034;-61
2024/02/13 04:54:46;;;;;;;4.00;2.93;;;7.40;99.90;;;;;;4114429;28;20427;-60
2024/02/13 04:56:47;;;;;;;4.73;2.77;;;7.40;99.90;;;;;;4115773;28;20059;-62
2024/02/13 04:58:49;;;;;;;2.73;2.37;;;7.40;99.90;;;;;;4114303;28;20206;-61
2024/02/13 05:01:10;;;;;;;4.43;2.80;;;7.40;99.90;;;;;;4112673;28;20573;-63
2024/02/13 05:03:17;;;;;;;4.90;2.17;;;7.40;99.90;;;;;;4098376;29;20039;-60
2024/02/13 05:07:38;;;;;;;3.17;2.43;;;7.40;99.90;;;;;;4098625;28;20027;-62
2024/02/13 05:09:39;;;;;;;4.67;3.10;;;7.40;99.90;;;;;;4099038;29;20693;-61
2024/02/13 05:11:40;;;;;;;4.30;2.90;;;7.30;99.90;;;;;;4097955;29;20031;-63
2024/02/13 05:13:43;;;;;;;5.67;2.47;;;7.30;99.90;;;;;;4113601;28;20562;-64
2024/02/13 05:15:46;;;;;;;4.33;2.93;;;7.30;99.90;;;;;;4098771;28;20110;-63
2024/02/13 05:17:48;;;;;;;4.23;2.63;;;7.40;99.90;;;;;;4099019;29;20094;-61
2024/02/13 05:19:50;;;;;;;5.87;4.10;;;7.30;99.90;;;;;;4100651;28;20106;-60
2024/02/13 05:21:51;;;;;;;3.77;2.73;;;7.30;99.90;;;;;;4099948;28;20027;-59
2024/02/13 05:23:52;;;;;;;3.27;2.60;;;7.30;99.90;;;;;;4097936;28;20468;-59
2024/02/13 05:25:54;;;;;;;6.10;3.10;;;7.30;99.90;;;;;;4098814;28;20444;-62
2024/02/13 05:27:55;;;;;;;5.13;2.80;;;7.30;99.90;;;;;;4099186;28;20471;-62
2024/02/13 05:29:59;;;;;;;3.63;2.97;;;7.30;99.90;;;;;;4110558;28;20039;-61
2024/02/13 05:32:03;;;;;;;6.20;2.60;;;7.30;99.90;;;;;;4112306;28;20581;-61
2024/02/13 05:34:06;;;;;;;3.90;2.73;;;7.30;99.90;;;;;;4107584;28;20105;-60
2024/02/13 05:36:09;;;;;;;4.80;2.90;;;7.30;99.90;;;;;;4098781;28;20047;-58
2024/02/13 05:38:11;;;;;;;4.67;2.50;;;7.30;99.90;;;;;;4097428;29;20047;-61
2024/02/13 05:40:12;;;;;;;5.67;2.67;;;7.30;99.90;;;;;;4099031;28;20102;-58
2024/02/13 05:42:15;;;;;;;3.73;2.57;;;7.30;99.90;;;;;;4099064;28;20090;-63
2024/02/13 05:44:17;;;;;;;6.67;3.50;;;7.30;99.90;;;;;;4098805;28;20451;-61
2024/02/13 05:46:18;;;;;;;3.30;2.50;;;7.30;99.90;;;;;;4097284;28;20435;-60
2024/02/13 05:48:19;;;;;;;5.10;3.00;;;7.30;99.90;;;;;;4098765;28;20114;-61
2024/02/13 05:50:21;;;;;;;3.03;2.30;;;7.30;99.90;;;;;;4098713;28;20039;-61
2024/02/13 05:52:22;;;;;;;4.20;2.53;;;7.30;99.90;;;;;;4099646;28;20043;-64
2024/02/13 05:54:23;;;;;;;2.50;2.23;;;7.30;99.90;;;;;;4097307;29;20086;-61
2024/02/13 05:56:25;;;;;;;4.40;3.07;;;7.30;99.90;;;;;;4098301;29;20476;-64
2024/02/13 05:58:27;;;;;;;3.43;2.90;;;7.30;99.90;;;;;;4097690;28;20055;-57
2024/02/13 06:00:31;;;;;;;3.97;2.63;;;7.30;99.90;;;;;;4100063;28;20054;-64
2024/02/13 06:02:32;;;;;;;5.47;3.23;;;7.30;99.90;;;;;;4111677;28;20034;-61
2024/02/13 06:04:34;;;;;;;5.53;3.30;;;7.30;99.90;;;;;;4113298;28;21026;-64
2024/02/13 06:06:37;;;;;;;3.67;2.97;;;7.30;99.90;;;;;;4113217;28;20356;-61
2024/02/13 06:08:38;;;;;;;5.20;3.07;;;7.30;99.90;;;;;;4112292;28;20050;-61
2024/02/13 06:10:39;;;;;;;3.70;2.67;;;7.40;99.90;;;;;;4113121;28;20490;-61
2024/02/13 06:12:41;;;;;;;3.47;2.57;;;7.30;99.90;;;;;;4113256;28;20043;-62
2024/02/13 06:14:43;;;;;;;4.20;3.03;;;7.30;99.90;;;;;;4114045;28;20094;-59
2024/02/13 06:16:45;;;;;;;3.97;3.07;;;7.40;99.90;;;;;;4112698;28;20131;-65
2024/02/13 06:18:49;;;;;;;4.47;3.23;;;7.30;99.90;;;;;;4113742;28;20109;-64
2024/02/13 06:20:50;;;;;;;5.30;3.00;;;7.40;99.90;;;;;;4113277;28;20094;-62
2024/02/13 06:22:51;;;;;;;3.80;2.60;;;7.40;99.90;;;;;;4114017;28;20082;-63
2024/02/13 06:24:53;;;;;;;9.93;4.73;;;7.30;99.90;;;;;;4112637;28;20498;-64
2024/02/13 06:26:54;;;;;;;8.30;4.90;;;7.30;99.90;;;;;;4113933;28;20546;-61
2024/02/13 06:28:56;;;;;;;7.07;4.87;;;7.30;99.90;;;;;;4112613;28;20039;-63
2024/02/13 06:30:57;;;;;;;7.23;5.00;;;7.40;99.90;;;;;;4113690;28;20054;-64
2024/02/13 06:33:00;;;;;;;6.80;3.03;;;7.30;99.90;;;;;;4112925;28;20082;-62
2024/02/13 06:35:01;;;;;;;12.50;7.17;;;7.30;99.90;;;;;;4113431;28;20051;-62
2024/02/13 06:37:02;;;;;;;17.50;8.50;;;7.30;99.90;;;;;;4113111;28;20436;-62
2024/02/13 06:39:05;;;;;;;7.23;5.10;;;7.30;99.90;;;;;;4113141;28;20427;-64
2024/02/13 06:41:08;;;;;;;5.27;3.90;;;7.40;99.90;;;;;;4113499;28;20027;-59
2024/02/13 06:43:09;;;;;;;4.27;2.43;;;7.40;99.90;;;;;;4112626;28;20050;-62
2024/02/13 06:45:10;;;;;;;4.03;2.80;;;7.40;99.90;;;;;;4113458;28;20116;-60
2024/02/13 06:47:12;;;;;;;5.40;3.00;;;7.40;99.90;;;;;;4112808;28;20035;-62
2024/02/13 06:49:13;;;;;;;7.17;3.80;;;7.40;99.90;;;;;;4113596;28;20030;-63
2024/02/13 06:51:14;;;;;;;4.87;2.87;;;7.40;99.90;;;;;;4112879;28;20081;-62
2024/02/13 06:53:16;;;;;;;3.00;2.53;;;7.40;99.90;;;;;;4113733;28;20478;-61
2024/02/13 06:55:17;;;;;;;5.33;2.90;;;7.40;99.90;;;;;;4112418;28;20292;-63
2024/02/13 06:57:18;;;;;;;14.23;6.10;;;7.40;99.90;;;;;;4113742;28;20054;-61
2024/02/13 06:59:19;;;;;;;7.73;4.40;;;7.40;99.90;;;;;;4127098;28;20453;-58
2024/02/13 07:01:23;;;;;;;8.10;4.43;;;7.40;99.90;;;;;;4113323;28;20090;-61
2024/02/13 07:03:24;;;;;;;5.00;3.50;;;7.40;99.90;;;;;;4112627;28;20026;-63
2024/02/13 07:05:27;;;;;;;4.80;2.87;;;7.40;99.90;;;;;;4113246;28;20495;-64
2024/02/13 07:07:28;;;;;;;4.93;3.20;;;7.40;99.90;;;;;;4112626;28;20056;-60
2024/02/13 07:09:29;;;;;;;6.43;3.17;;;7.40;99.90;;;;;;4112800;28;20019;-63
2024/02/13 07:11:33;;;;;;;6.67;3.90;;;7.40;99.90;;;;;;4112775;28;20030;-56
2024/02/13 07:13:34;;;;;;;3.33;2.60;;;7.40;99.90;;;;;;4112199;28;20084;-62
2024/02/13 07:15:36;;;;;;;6.27;3.80;;;7.40;99.90;;;;;;4112886;28;20035;-63
2024/02/13 07:17:37;;;;;;;3.87;2.60;;;7.40;99.90;;;;;;4112141;28;20472;-59
2024/02/13 07:19:41;;;;;;;4.47;2.97;;;7.40;99.90;;;;;;4113531;28;20038;-60
2024/02/13 07:21:42;;;;;;;4.23;2.90;;;7.40;99.90;;;;;;4112176;28;20113;-64
2024/02/13 07:23:43;;;;;;;3.30;2.43;;;7.40;99.90;;;;;;4113206;28;20089;-60
2024/02/13 07:25:44;;;;;;;3.07;2.00;;;7.40;99.90;;;;;;4111894;28;20039;-59
2024/02/13 07:27:49;;;;;;;5.30;2.67;;;7.40;99.90;;;;;;4113293;28;20558;-56
2024/02/13 07:29:50;;;;;;;3.93;2.70;;;7.40;99.90;;;;;;4111847;28;21022;-61
2024/02/13 07:31:51;;;;;;;3.20;2.30;;;7.40;99.90;;;;;;4113344;28;20109;-62
2024/02/13 07:33:53;;;;;;;13.83;5.47;;;7.50;99.90;;;;;;4110696;28;20038;-62
2024/02/13 07:35:54;;;;;;;33.63;13.40;;;7.40;99.90;;;;;;4112813;28;20039;-62
2024/02/13 07:37:55;;;;;;;10.43;4.93;;;7.40;99.90;;;;;;4110376;28;20471;-62
2024/02/13 07:39:57;;;;;;;7.20;4.10;;;7.40;99.90;;;;;;4112644;28;20031;-63
2024/02/13 07:41:58;;;;;;;6.23;4.10;;;7.40;99.90;;;;;;4111995;28;20019;-55
2024/02/13 07:43:59;;;;;;;5.40;3.87;;;7.50;99.90;;;;;;4112136;28;20844;-65
2024/02/13 07:46:01;;;;;;;4.10;2.77;;;7.40;99.90;;;;;;4112561;28;20042;-60
2024/02/13 07:48:04;;;;;;;4.20;2.80;;;7.40;99.90;;;;;;4111923;28;20058;-59
2024/02/13 07:50:07;;;;;;;5.03;2.37;;;7.40;99.90;;;;;;4112936;28;20055;-64
2024/02/13 07:52:12;;;;;;;2.13;1.60;;;7.40;99.90;;;;;;4111615;28;20093;-61
2024/02/13 07:54:14;;;;;;;3.10;2.23;;;7.40;99.90;;;;;;4112986;28;20023;-63
2024/02/13 07:56:18;;;;;;;2.00;1.80;;;7.40;99.90;;;;;;4111631;28;20093;-62
2024/02/13 07:58:19;;;;;;;2.90;1.70;;;7.40;99.90;;;;;;4112806;28;20050;-61
2024/02/13 08:00:23;;;;;;;2.80;1.60;;;7.40;99.90;;;;;;4111425;28;20042;-62
2024/02/13 08:02:25;;;;;;;4.03;2.57;;;7.40;99.90;;;;;;4112759;28;20065;-62
2024/02/13 08:04:26;;;;;;;2.93;1.97;;;7.40;99.90;;;;;;4110215;28;20042;-62
2024/02/13 08:06:27;;;;;;;2.57;2.10;;;7.30;99.90;;;;;;4112827;28;20068;-63
2024/02/13 08:08:29;;;;;;;3.70;2.60;;;7.40;99.90;;;;;;4111558;28;20077;-60
2024/02/13 08:10:30;;;;;;;6.63;1.97;;;7.40;99.90;;;;;;4111068;28;20030;-64
2024/02/13 08:12:31;;;;;;;1.90;1.80;;;7.30;99.90;;;;;;4111939;28;20042;-64
2024/02/13 08:14:33;;;;;;;5.60;1.97;;;7.40;99.90;;;;;;4112150;28;20185;-64
2024/02/13 08:16:35;;;;;;;3.23;2.50;;;7.40;99.90;;;;;;4111631;28;20043;-63
2024/02/13 08:18:36;;;;;;;3.13;1.77;;;7.40;99.90;;;;;;4111666;28;20451;-64
2024/02/13 08:20:39;;;;;;;3.07;1.77;;;7.40;99.90;;;;;;4112757;28;20471;-63
2024/02/13 08:22:40;;;;;;;2.50;2.20;;;7.40;99.90;;;;;;4110071;28;20055;-59
2024/02/13 08:24:42;;;;;;;2.73;2.20;;;7.40;99.90;;;;;;4112601;28;20055;-58
2024/02/13 08:26:43;;;;;;;2.77;2.10;;;7.40;99.90;;;;;;4113959;28;20098;-64
2024/02/13 08:28:44;;;;;;;2.13;1.50;;;7.40;99.90;;;;;;4115804;28;20031;-62
2024/02/13 08:30:48;;;;;;;5.40;3.90;;;7.40;99.90;;;;;;4114658;28;20109;-63
2024/02/13 08:32:49;;;;;;;3.77;1.70;;;7.40;99.90;;;;;;4114550;28;20052;-61
2024/02/13 08:34:52;;;;;;;1.90;1.73;;;7.50;99.90;;;;;;4114735;28;20043;-63
2024/02/13 08:36:55;;;;;;;1.83;1.57;;;7.50;99.90;;;;;;4115769;28;20489;-62
2024/02/13 08:38:56;;;;;;;1.90;1.40;;;7.50;99.90;;;;;;4114518;28;20034;-61
2024/02/13 08:40:58;;;;;;;2.63;1.70;;;7.50;99.90;;;;;;4115577;28;20109;-56
2024/02/13 08:42:59;;;;;;;6.00;2.37;;;7.50;99.90;;;;;;4114610;28;20027;-61
2024/02/13 08:45:01;;;;;;;2.43;2.03;;;7.50;99.90;;;;;;4115100;28;20081;-57
2024/02/13 08:47:03;;;;;;;2.83;2.10;;;7.50;99.90;;;;;;4114614;28;20089;-60
2024/02/13 08:49:04;;;;;;;3.97;2.37;;;7.50;99.90;;;;;;4114670;28;20043;-59
2024/02/13 08:51:06;;;;;;;3.03;2.10;;;7.50;99.90;;;;;;4115148;28;20449;-59
2024/02/13 08:53:09;;;;;;;4.10;2.07;;;7.50;99.90;;;;;;4114464;28;20027;-58
2024/02/13 08:55:10;;;;;;;3.53;2.60;;;7.50;99.90;;;;;;4114895;28;20085;-60
2024/02/13 08:57:14;;;;;;;3.40;2.20;;;7.60;99.90;;;;;;4114038;28;20039;-61
2024/02/13 08:59:16;;;;;;;3.43;2.07;;;7.50;99.90;;;;;;4115245;28;20035;-59
2024/02/13 09:01:20;;;;;;;2.27;2.07;;;7.50;99.90;;;;;;4112573;28;20089;-58
2024/02/13 09:03:22;;;;;;;2.80;2.13;;;7.50;99.90;;;;;;4115277;28;20081;-59
2024/02/13 09:05:23;;;;;;;6.53;2.00;;;7.50;99.90;;;;;;4114138;28;20034;-59
2024/02/13 09:07:28;;;;;;;2.73;1.80;;;7.50;99.90;;;;;;4115407;28;20109;-62
2024/02/13 09:09:32;;;;;;;4.70;2.43;;;7.50;99.90;;;;;;4113871;28;20090;-60
2024/02/13 09:11:33;;;;;;;2.50;2.17;;;7.50;99.90;;;;;;4115520;28;20059;-59
2024/02/13 09:13:35;;;;;;;1.73;1.43;;;7.50;99.90;;;;;;4114000;28;20085;-58
2024/02/13 09:15:36;;;;;;;3.23;2.10;;;7.50;99.90;;;;;;4115263;28;20116;-61
2024/02/13 09:17:44;;;;;;;3.30;1.70;;;7.50;99.90;;;;;;4113713;28;20043;-63
2024/02/13 09:19:45;;;;;;;2.23;1.73;;;7.50;99.90;;;;;;4115296;28;20051;-66
2024/02/13 09:21:46;;;;;;;2.93;1.97;;;7.50;99.90;;;;;;4114476;28;20034;-60
2024/02/13 09:23:48;;;;;;;2.03;1.80;;;7.60;99.90;;;;;;4114746;28;20038;-62
2024/02/13 09:25:51;;;;;;;2.43;1.20;;;7.60;99.90;;;;;;4114159;28;20121;-61
2024/02/13 09:27:54;;;;;;;2.87;1.67;;;7.60;99.90;;;;;;4114320;28;20545;-60
2024/02/13 09:29:55;;;;;;;4.43;2.23;;;7.60;99.90;;;;;;4114251;28;20471;-60
2024/02/13 09:31:57;;;;;;;2.60;2.03;;;7.60;99.90;;;;;;4114270;28;20046;-61
2024/02/13 09:33:59;;;;;;;2.60;1.50;;;7.60;99.90;;;;;;4114653;28;20081;-60
2024/02/13 09:36:00;;;;;;;2.33;1.40;;;7.60;99.90;;;;;;4113451;28;20050;-61
2024/02/13 09:38:01;;;;;;;2.03;1.33;;;7.70;99.90;;;;;;4114154;28;20076;-62
2024/02/13 09:40:06;;;;;;;1.67;1.40;;;7.60;99.90;;;;;;4113565;28;20129;-59
2024/02/13 09:42:07;;;;;;;3.33;2.57;;;7.60;99.90;;;;;;4114720;28;20073;-61
2024/02/13 09:44:09;;;;;;;5.20;2.33;;;7.60;99.90;;;;;;4113504;28;20073;-63
2024/02/13 09:46:11;;;;;;;1.60;1.40;;;7.60;99.90;;;;;;4114362;28;20031;-65
2024/02/13 09:48:23;;;;;;;2.20;1.63;;;7.60;99.90;;;;;;4113481;28;20403;-58
2024/02/13 09:50:29;;;;;;;2.67;1.80;;;7.60;99.90;;;;;;4113225;28;20086;-60
2024/02/13 09:52:33;;;;;;;1.63;1.53;;;7.60;99.90;;;;;;4113914;28;20085;-58
2024/02/13 09:54:35;;;;;;;2.17;1.60;;;7.60;99.90;;;;;;4113213;28;20090;-58
2024/02/13 09:56:38;;;;;;;3.33;1.70;;;7.50;99.90;;;;;;4113200;28;20035;-61
2024/02/13 09:58:41;;;;;;;5.60;2.17;;;7.50;99.90;;;;;;4114315;28;20047;-61
2024/02/13 10:00:43;;;;;;;2.30;1.40;;;7.50;99.90;;;;;;4113423;28;20026;-59
2024/02/13 10:02:47;;;;;;;2.40;1.90;;;7.50;99.90;;;;;;4114233;28;20027;-65
2024/02/13 10:04:49;;;;;;;4.90;2.13;;;7.50;99.90;;;;;;4113956;28;20109;-60
2024/02/13 10:06:50;;;;;;;2.80;1.80;;;7.50;99.90;;;;;;4113819;28;20034;-60
2024/02/13 10:08:53;;;;;;;2.07;1.60;;;7.50;99.90;;;;;;4113699;28;20035;-58
2024/02/13 10:11:04;;;;;;;2.63;2.10;;;7.50;99.90;;;;;;4113448;28;20087;-64
2024/02/13 10:13:09;;;;;;;2.93;1.43;;;7.50;99.90;;;;;;4113924;28;20105;-64
2024/02/13 10:15:11;;;;;;;2.30;1.70;;;7.50;99.90;;;;;;4112766;28;20043;-62
2024/02/13 10:17:14;;;;;;;3.20;1.90;;;7.50;99.90;;;;;;4113150;28;20109;-65
2024/02/13 10:19:19;;;;;;;3.20;1.87;;;7.50;99.90;;;;;;4112310;28;20043;-64
2024/02/13 10:21:24;;;;;;;4.00;1.90;;;7.50;99.90;;;;;;4113429;28;20626;-64
2024/02/13 10:23:29;;;;;;;1.50;1.40;;;7.50;99.90;;;;;;4112210;28;20019;-64
2024/02/13 10:25:33;;;;;;;2.77;2.07;;;7.50;99.90;;;;;;4112991;28;20081;-63
2024/02/13 10:27:35;;;;;;;1.80;1.60;;;7.50;99.90;;;;;;4111883;28;20035;-62
2024/02/13 10:29:45;;;;;;;2.37;1.87;;;7.50;99.90;;;;;;4113226;28;20035;-62
2024/02/13 10:31:46;;;;;;;6.10;1.50;;;7.50;99.90;;;;;;4112011;28;20113;-62
2024/02/13 10:33:47;;;;;;;3.37;1.67;;;7.50;99.90;;;;;;4113044;28;20073;-63
2024/02/13 10:35:52;;;;;;;2.40;1.63;;;7.50;99.90;;;;;;4111781;28;20085;-59
2024/02/13 10:37:53;;;;;;;2.93;1.80;;;7.60;99.90;;;;;;4112784;28;20031;-60
2024/02/13 10:39:59;;;;;;;1.40;1.27;;;7.60;99.90;;;;;;4111644;28;20069;-57
2024/02/13 10:42:02;;;;;;;3.17;1.93;;;7.60;99.90;;;;;;4111460;28;20034;-64
2024/02/13 10:44:04;;;;;;;2.00;1.73;;;7.60;99.90;;;;;;4111620;28;20035;-58
2024/02/13 10:46:09;;;;;;;5.53;2.27;;;7.60;99.90;;;;;;4112356;28;20047;-62